Time;durP1;ratioP1;P1;durP2;ratioP2;P2;SDS_P1;SDS_P2;PMS_P1;PMS_P2;Temp;Humidity;BMP_temperature;BMP_pressure;BME280_temperature;BME280_humidity;BME280_pressure;Samples;Min_cycle;Max_cycle;Signal;HPM_P1;HPM_P2
2021/11/05 00:01:43;;;;;;;3.73;2.10;;;9.10;99.90;;;;;;5053019;28;20202;-69
2021/11/05 00:04:10;;;;;;;3.87;2.17;;;9.20;99.90;;;;;;5057142;28;20212;-70
2021/11/05 00:06:37;;;;;;;1.93;1.70;;;9.20;99.90;;;;;;5051405;28;20216;-67
2021/11/05 00:09:04;;;;;;;3.47;2.10;;;9.10;99.90;;;;;;5055828;28;20228;-68
2021/11/05 00:11:31;;;;;;;7.90;2.03;;;9.10;99.90;;;;;;5051745;28;20216;-68
2021/11/05 00:13:58;;;;;;;4.63;2.20;;;9.20;99.90;;;;;;5050407;28;20213;-67
2021/11/05 00:16:25;;;;;;;2.20;1.70;;;9.20;99.90;;;;;;5051425;28;20206;-68
2021/11/05 00:18:53;;;;;;;2.20;1.73;;;9.20;99.90;;;;;;5050597;28;20205;-69
2021/11/05 00:21:20;;;;;;;2.87;2.10;;;9.20;99.90;;;;;;5051269;28;20233;-69
2021/11/05 00:23:47;;;;;;;2.23;1.93;;;9.20;99.90;;;;;;5050523;28;20216;-68
2021/11/05 00:26:14;;;;;;;2.57;1.80;;;9.20;99.90;;;;;;5051747;28;20626;-68
2021/11/05 00:28:41;;;;;;;4.37;1.77;;;9.20;99.90;;;;;;5060730;28;20571;-70
2021/11/05 00:31:08;;;;;;;3.73;2.20;;;9.20;99.90;;;;;;5050204;28;20241;-69
2021/11/05 00:33:34;;;;;;;2.83;1.77;;;9.20;99.90;;;;;;5059941;28;20259;-69
2021/11/05 00:36:03;;;;;;;1.77;1.50;;;9.30;99.90;;;;;;5051142;28;20210;-70
2021/11/05 00:38:30;;;;;;;3.63;2.27;;;9.20;99.90;;;;;;5049113;28;20588;-68
2021/11/05 00:40:56;;;;;;;3.07;2.13;;;9.20;99.90;;;;;;5038674;28;20204;-69
2021/11/05 00:43:23;;;;;;;3.57;2.23;;;9.20;99.90;;;;;;5054461;28;20692;-69
2021/11/05 00:45:50;;;;;;;3.90;2.13;;;9.20;99.90;;;;;;5050258;28;20221;-69
2021/11/05 00:48:17;;;;;;;4.57;3.07;;;9.20;99.90;;;;;;5050521;28;20256;-69
2021/11/05 00:50:44;;;;;;;3.13;2.17;;;9.30;99.90;;;;;;5050285;28;20256;-68
2021/11/05 00:53:12;;;;;;;5.17;2.20;;;9.30;99.90;;;;;;5055023;28;20205;-69
2021/11/05 00:55:39;;;;;;;3.40;2.40;;;9.30;99.90;;;;;;5049932;28;20228;-69
2021/11/05 00:58:06;;;;;;;2.00;1.70;;;9.30;99.90;;;;;;5054592;28;20553;-68
2021/11/05 01:00:33;;;;;;;4.37;2.00;;;9.30;99.90;;;;;;5049543;28;20212;-68
2021/11/05 01:03:00;;;;;;;1.80;1.50;;;9.30;99.90;;;;;;5060530;28;20215;-70
2021/11/05 01:05:27;;;;;;;4.30;2.50;;;9.30;99.90;;;;;;5050392;28;20216;-69
2021/11/05 01:07:54;;;;;;;1.90;1.63;;;9.30;99.90;;;;;;5062554;28;20638;-68
2021/11/05 01:10:22;;;;;;;2.70;1.90;;;9.20;99.90;;;;;;5043434;28;20218;-69
2021/11/05 01:12:49;;;;;;;3.67;1.73;;;9.30;99.90;;;;;;5050319;28;20214;-68
2021/11/05 01:15:16;;;;;;;4.63;2.10;;;9.30;99.90;;;;;;5050475;28;20647;-69
2021/11/05 01:17:44;;;;;;;3.67;2.43;;;9.20;99.90;;;;;;5057446;28;20201;-69
2021/11/05 01:20:13;;;;;;;1.90;1.43;;;9.20;99.90;;;;;;5053052;28;20264;-69
2021/11/05 01:22:40;;;;;;;2.27;1.90;;;9.20;99.90;;;;;;5050116;28;20210;-69
2021/11/05 01:25:07;;;;;;;2.40;1.70;;;9.20;99.90;;;;;;5050766;28;20210;-68
2021/11/05 01:27:35;;;;;;;2.50;1.90;;;9.20;99.90;;;;;;5048304;28;20213;-68
2021/11/05 01:30:03;;;;;;;3.90;1.70;;;9.30;99.90;;;;;;5049890;28;20256;-69
2021/11/05 01:32:30;;;;;;;4.30;2.20;;;9.30;99.90;;;;;;5051878;28;20296;-69
2021/11/05 01:34:58;;;;;;;2.00;1.60;;;9.30;99.90;;;;;;5057293;28;20270;-68
2021/11/05 01:37:25;;;;;;;2.17;1.50;;;9.30;99.90;;;;;;5050461;28;20206;-69
2021/11/05 01:39:52;;;;;;;1.93;1.60;;;9.30;99.90;;;;;;5050183;28;20639;-69
2021/11/05 01:42:19;;;;;;;2.13;1.73;;;9.30;99.90;;;;;;5057544;28;20236;-69
2021/11/05 01:44:47;;;;;;;2.03;1.60;;;9.40;99.90;;;;;;5054191;28;20205;-68
2021/11/05 01:47:14;;;;;;;1.97;1.77;;;9.40;99.90;;;;;;5053990;28;20220;-69
2021/11/05 01:49:41;;;;;;;2.40;1.60;;;9.40;99.90;;;;;;5054769;28;20225;-68
2021/11/05 01:52:08;;;;;;;1.73;1.63;;;9.40;99.90;;;;;;5054947;28;20210;-69
2021/11/05 01:54:35;;;;;;;2.20;1.83;;;9.40;99.90;;;;;;5054328;28;20211;-69
2021/11/05 01:57:02;;;;;;;2.47;1.47;;;9.40;99.90;;;;;;5054485;28;20230;-69
2021/11/05 01:59:32;;;;;;;2.37;1.63;;;9.40;99.90;;;;;;5058430;28;20220;-69
2021/11/05 02:02:02;;;;;;;2.10;1.83;;;9.40;99.90;;;;;;5054218;28;20292;-69
2021/11/05 02:04:29;;;;;;;1.60;1.50;;;9.40;99.90;;;;;;5054425;28;20282;-68
2021/11/05 02:06:58;;;;;;;2.40;2.07;;;9.50;99.90;;;;;;5056022;28;20205;-68
2021/11/05 02:09:27;;;;;;;2.10;1.80;;;9.50;99.90;;;;;;5054569;28;20205;-68
2021/11/05 02:11:56;;;;;;;2.07;1.50;;;9.50;99.90;;;;;;5055801;28;20208;-70
2021/11/05 02:14:25;;;;;;;1.87;1.33;;;9.50;99.90;;;;;;5068023;28;20205;-68
2021/11/05 02:16:54;;;;;;;4.90;1.70;;;9.50;99.90;;;;;;5057003;28;20202;-69
2021/11/05 02:19:24;;;;;;;2.03;1.40;;;9.50;99.90;;;;;;5053700;28;20221;-69
2021/11/05 02:21:55;;;;;;;4.93;1.33;;;9.60;99.90;;;;;;5055661;28;20206;-69
2021/11/05 02:24:25;;;;;;;1.07;1.07;;;9.50;99.90;;;;;;5059854;28;20244;-68
2021/11/05 02:26:53;;;;;;;2.03;1.63;;;9.50;99.90;;;;;;5058443;28;20647;-69
2021/11/05 02:29:22;;;;;;;2.97;1.37;;;9.60;99.90;;;;;;5054339;28;20291;-68
2021/11/05 02:31:49;;;;;;;2.33;1.70;;;9.50;99.90;;;;;;5044204;28;20252;-69
2021/11/05 02:34:17;;;;;;;1.77;1.67;;;9.50;99.90;;;;;;5057691;28;20206;-69
2021/11/05 02:36:43;;;;;;;1.50;1.40;;;9.50;99.90;;;;;;5053742;28;20308;-69
2021/11/05 02:39:12;;;;;;;1.57;1.27;;;9.50;99.90;;;;;;5053331;28;20212;-69
2021/11/05 02:41:39;;;;;;;1.67;1.47;;;9.60;99.90;;;;;;5055009;28;20210;-69
2021/11/05 02:44:07;;;;;;;2.03;1.57;;;9.60;99.90;;;;;;5052338;28;20247;-69
2021/11/05 02:46:34;;;;;;;2.77;1.30;;;9.60;99.90;;;;;;5053479;28;20216;-69
2021/11/05 02:49:03;;;;;;;1.80;1.60;;;9.60;99.90;;;;;;5052813;28;20400;-68
2021/11/05 02:51:30;;;;;;;2.00;1.40;;;9.60;99.90;;;;;;5056399;28;20232;-68
2021/11/05 02:53:58;;;;;;;4.57;1.63;;;9.60;99.90;;;;;;5061021;28;20202;-69
2021/11/05 02:56:27;;;;;;;2.50;1.70;;;9.60;99.90;;;;;;5055626;28;20218;-68
2021/11/05 02:58:54;;;;;;;2.77;1.53;;;9.60;99.90;;;;;;5053380;28;20214;-68
2021/11/05 03:01:21;;;;;;;1.30;1.20;;;9.60;99.90;;;;;;5052904;28;20229;-69
2021/11/05 03:03:48;;;;;;;3.33;1.43;;;9.60;99.90;;;;;;5052623;28;20236;-69
2021/11/05 03:06:15;;;;;;;2.00;1.80;;;9.60;99.90;;;;;;5057634;28;20567;-69
2021/11/05 03:08:43;;;;;;;3.27;1.50;;;9.60;99.90;;;;;;5053391;28;20214;-68
2021/11/05 03:11:12;;;;;;;2.30;1.37;;;9.60;99.90;;;;;;5052639;28;20226;-69
2021/11/05 03:13:41;;;;;;;1.60;1.33;;;9.60;99.90;;;;;;5052901;28;20198;-68
2021/11/05 03:16:08;;;;;;;2.93;1.40;;;9.60;99.90;;;;;;5052954;28;20249;-70
2021/11/05 03:18:39;;;;;;;2.33;1.33;;;9.60;99.90;;;;;;5052785;28;20198;-69
2021/11/05 03:21:06;;;;;;;1.93;1.70;;;9.60;99.90;;;;;;5052752;28;20209;-69
2021/11/05 03:23:33;;;;;;;1.93;1.30;;;9.60;99.90;;;;;;5064533;28;20213;-69
2021/11/05 03:26:00;;;;;;;1.83;1.40;;;9.60;99.90;;;;;;5052757;28;20222;-69
2021/11/05 03:28:27;;;;;;;2.97;1.37;;;9.70;99.90;;;;;;5051740;28;20301;-68
2021/11/05 03:30:55;;;;;;;2.23;1.43;;;9.70;99.90;;;;;;5052324;28;20577;-69
2021/11/05 03:33:22;;;;;;;2.43;1.30;;;9.70;99.90;;;;;;5065178;28;20595;-69
2021/11/05 03:35:49;;;;;;;1.73;1.33;;;9.70;99.90;;;;;;5053206;28;20285;-70
2021/11/05 03:38:16;;;;;;;1.83;1.40;;;9.70;99.90;;;;;;5053055;28;20238;-70
2021/11/05 03:40:43;;;;;;;1.87;1.40;;;9.70;99.90;;;;;;5052650;28;20197;-69
2021/11/05 03:43:09;;;;;;;2.33;1.37;;;9.70;99.90;;;;;;5052591;28;20210;-69
2021/11/05 03:45:36;;;;;;;1.63;1.20;;;9.70;99.90;;;;;;5052002;28;20576;-69
2021/11/05 03:48:05;;;;;;;1.30;1.20;;;9.80;99.90;;;;;;5052710;28;20613;-69
2021/11/05 03:50:32;;;;;;;1.53;1.20;;;9.70;99.90;;;;;;5052314;28;20240;-69
2021/11/05 03:52:59;;;;;;;3.17;1.70;;;9.70;99.90;;;;;;5058131;28;20206;-69
2021/11/05 03:55:26;;;;;;;1.63;1.40;;;9.80;99.90;;;;;;5059098;28;20222;-69
2021/11/05 03:57:52;;;;;;;3.37;1.93;;;9.70;99.90;;;;;;5051931;28;20232;-69
2021/11/05 04:00:20;;;;;;;1.23;1.13;;;9.70;99.90;;;;;;5052778;28;20204;-68
2021/11/05 04:02:48;;;;;;;1.67;1.40;;;9.80;99.90;;;;;;5062020;28;20237;-69
2021/11/05 04:05:17;;;;;;;1.80;1.40;;;9.70;99.90;;;;;;5049711;28;20206;-70
2021/11/05 04:07:44;;;;;;;1.77;1.53;;;9.80;99.90;;;;;;5052916;28;20237;-69
2021/11/05 04:10:11;;;;;;;1.43;1.33;;;9.80;99.90;;;;;;5052352;28;20292;-70
2021/11/05 04:12:38;;;;;;;1.90;1.40;;;9.80;99.90;;;;;;5051451;28;20205;-69
2021/11/05 04:15:06;;;;;;;1.43;1.33;;;9.70;99.90;;;;;;5051837;28;20209;-69
2021/11/05 04:17:33;;;;;;;1.50;1.40;;;9.80;99.90;;;;;;5061604;28;20213;-69
2021/11/05 04:20:00;;;;;;;2.27;1.60;;;9.70;99.90;;;;;;5051989;28;20296;-69
2021/11/05 04:22:28;;;;;;;2.47;1.60;;;9.80;99.90;;;;;;5059224;28;20555;-69
2021/11/05 04:24:55;;;;;;;1.70;1.50;;;9.80;99.90;;;;;;5058038;28;20215;-68
2021/11/05 04:27:22;;;;;;;2.87;1.43;;;9.80;99.90;;;;;;5040845;28;20279;-69
2021/11/05 04:29:49;;;;;;;2.10;1.67;;;9.80;99.90;;;;;;5051017;28;20606;-69
2021/11/05 04:32:17;;;;;;;2.87;1.43;;;9.80;99.90;;;;;;5050082;28;20218;-69
2021/11/05 04:34:43;;;;;;;1.67;1.57;;;9.70;99.90;;;;;;5061364;28;20212;-69
2021/11/05 04:37:10;;;;;;;2.50;1.47;;;9.80;99.90;;;;;;5054879;28;20241;-69
2021/11/05 04:39:38;;;;;;;3.60;1.90;;;9.80;99.90;;;;;;5050873;28;20220;-68
2021/11/05 04:42:06;;;;;;;1.83;1.27;;;9.70;99.90;;;;;;5053678;28;20205;-68
2021/11/05 04:44:33;;;;;;;2.43;1.83;;;9.80;99.90;;;;;;5050738;28;20206;-68
2021/11/05 04:47:00;;;;;;;1.80;1.70;;;9.80;99.90;;;;;;5051414;28;20201;-68
2021/11/05 04:49:27;;;;;;;2.90;1.70;;;9.80;99.90;;;;;;5051066;28;20212;-69
2021/11/05 04:51:53;;;;;;;2.73;1.33;;;9.80;99.90;;;;;;5052485;28;20241;-69
2021/11/05 04:54:20;;;;;;;2.73;1.60;;;9.80;99.90;;;;;;5056669;28;20205;-69
2021/11/05 04:56:49;;;;;;;1.70;1.60;;;9.80;99.90;;;;;;5051839;28;20226;-69
2021/11/05 04:59:18;;;;;;;2.10;1.90;;;9.80;99.90;;;;;;5062435;28;20208;-71
2021/11/05 05:01:46;;;;;;;1.70;1.60;;;9.90;99.90;;;;;;5050851;28;20216;-69
2021/11/05 05:04:13;;;;;;;2.63;1.50;;;9.80;99.90;;;;;;5051113;28;20246;-69
2021/11/05 05:06:40;;;;;;;1.73;1.43;;;9.80;99.90;;;;;;5050804;28;20206;-69
2021/11/05 05:09:07;;;;;;;1.73;1.47;;;9.80;99.90;;;;;;5050021;28;20697;-68
2021/11/05 05:11:34;;;;;;;1.73;1.63;;;9.80;99.90;;;;;;5051435;28;20221;-68
2021/11/05 05:14:02;;;;;;;3.00;1.67;;;9.80;99.90;;;;;;5063167;28;20259;-70
2021/11/05 05:16:29;;;;;;;2.73;1.97;;;9.80;99.90;;;;;;5053196;28;20313;-69
2021/11/05 05:18:56;;;;;;;1.87;1.40;;;9.80;99.90;;;;;;5054830;28;20208;-69
2021/11/05 05:21:23;;;;;;;1.50;1.40;;;9.80;99.90;;;;;;5054795;28;20212;-68
2021/11/05 05:23:50;;;;;;;2.67;1.63;;;9.80;99.90;;;;;;5055077;28;20194;-69
2021/11/05 05:26:17;;;;;;;3.07;1.90;;;9.80;99.90;;;;;;5054709;28;20509;-69
2021/11/05 05:28:44;;;;;;;1.80;1.60;;;9.80;99.90;;;;;;5055704;28;20213;-70
2021/11/05 05:31:12;;;;;;;1.70;1.50;;;9.90;99.90;;;;;;5055890;28;20233;-70
2021/11/05 05:33:39;;;;;;;2.10;1.60;;;9.90;99.90;;;;;;5058018;28;20202;-69
2021/11/05 05:36:07;;;;;;;2.10;1.60;;;9.90;99.90;;;;;;5054871;28;20204;-69
2021/11/05 05:38:35;;;;;;;2.20;1.67;;;9.90;99.90;;;;;;5055302;28;20218;-69
2021/11/05 05:41:03;;;;;;;1.83;1.67;;;9.90;99.90;;;;;;5054765;28;20216;-69
2021/11/05 05:43:30;;;;;;;1.90;1.67;;;9.90;99.90;;;;;;5054433;28;20209;-69
2021/11/05 05:45:57;;;;;;;2.87;1.77;;;9.90;99.90;;;;;;5055988;28;20206;-69
2021/11/05 05:48:26;;;;;;;2.10;1.90;;;9.90;99.90;;;;;;5056747;28;20572;-69
2021/11/05 05:50:53;;;;;;;3.27;2.27;;;9.90;99.90;;;;;;5053573;28;20221;-68
2021/11/05 05:53:21;;;;;;;2.27;1.80;;;9.90;99.90;;;;;;5050872;28;20210;-69
2021/11/05 05:55:48;;;;;;;3.00;2.17;;;9.90;99.90;;;;;;5054215;28;20244;-70
2021/11/05 05:58:15;;;;;;;1.83;1.57;;;9.90;99.90;;;;;;5054814;28;20197;-69
2021/11/05 06:00:43;;;;;;;2.50;2.10;;;9.90;99.90;;;;;;5057196;28;20229;-70
2021/11/05 06:03:09;;;;;;;2.10;1.87;;;9.80;99.90;;;;;;5057844;28;20216;-70
2021/11/05 06:05:38;;;;;;;3.30;2.50;;;9.80;99.90;;;;;;5054684;28;20717;-69
2021/11/05 06:08:05;;;;;;;2.27;1.97;;;9.80;99.90;;;;;;5064454;28;20205;-69
2021/11/05 06:10:32;;;;;;;6.87;2.37;;;9.80;99.90;;;;;;5054174;28;20213;-70
2021/11/05 06:12:59;;;;;;;3.80;2.07;;;9.80;99.90;;;;;;5054588;28;20229;-70
2021/11/05 06:15:26;;;;;;;2.87;2.27;;;9.80;99.90;;;;;;5053840;28;20209;-70
2021/11/05 06:17:53;;;;;;;3.10;2.20;;;9.80;99.90;;;;;;5063828;28;20217;-69
2021/11/05 06:20:20;;;;;;;3.00;2.30;;;9.80;99.90;;;;;;5059137;28;20209;-69
2021/11/05 06:22:49;;;;;;;3.77;2.30;;;9.80;99.90;;;;;;5063773;28;20240;-70
2021/11/05 06:25:15;;;;;;;3.03;2.17;;;9.70;99.90;;;;;;5053336;28;20205;-68
2021/11/05 06:27:42;;;;;;;3.30;2.23;;;9.70;99.90;;;;;;5069186;28;20216;-69
2021/11/05 06:30:11;;;;;;;5.50;2.43;;;9.70;99.90;;;;;;5057578;28;20267;-69
2021/11/05 06:32:38;;;;;;;2.77;2.33;;;9.70;99.90;;;;;;5065256;28;20308;-69
2021/11/05 06:35:06;;;;;;;3.17;2.40;;;9.70;99.90;;;;;;5053983;28;20580;-68
2021/11/05 06:37:33;;;;;;;3.90;2.77;;;9.70;99.90;;;;;;5040300;28;20218;-69
2021/11/05 06:40:01;;;;;;;3.60;2.73;;;9.60;99.90;;;;;;5053964;28;20218;-68
2021/11/05 06:42:28;;;;;;;6.07;2.70;;;9.60;99.90;;;;;;5053435;28;20658;-69
2021/11/05 06:44:55;;;;;;;3.20;2.87;;;9.70;99.90;;;;;;5052585;28;20198;-68
2021/11/05 06:47:22;;;;;;;3.53;2.83;;;9.60;99.90;;;;;;5053328;28;20210;-69
2021/11/05 06:49:49;;;;;;;2.97;2.37;;;9.60;99.90;;;;;;5054057;28;20292;-70
2021/11/05 06:52:16;;;;;;;5.27;2.90;;;9.60;99.90;;;;;;5049372;28;20693;-70
2021/11/05 06:54:43;;;;;;;3.63;2.33;;;9.60;99.90;;;;;;5053801;28;20217;-72
2021/11/05 06:57:11;;;;;;;4.73;2.53;;;9.60;99.90;;;;;;5050686;28;20330;-73
2021/11/05 06:59:38;;;;;;;3.17;2.70;;;9.60;99.90;;;;;;5056653;28;20220;-73
2021/11/05 07:02:05;;;;;;;3.70;2.70;;;9.60;99.90;;;;;;5059972;28;20247;-75
2021/11/05 07:04:32;;;;;;;3.67;2.70;;;9.60;99.90;;;;;;5054139;28;20206;-76
2021/11/05 07:07:00;;;;;;;5.17;2.53;;;9.50;99.90;;;;;;5060064;28;20240;-71
2021/11/05 07:09:27;;;;;;;3.53;2.20;;;9.60;99.90;;;;;;5058079;28;20311;-73
2021/11/05 07:11:54;;;;;;;4.87;2.70;;;9.50;99.90;;;;;;5054181;28;20218;-70
2021/11/05 07:14:23;;;;;;;3.77;2.73;;;9.50;99.90;;;;;;5054187;28;20665;-71
2021/11/05 07:16:49;;;;;;;3.93;2.70;;;9.50;99.90;;;;;;5047870;28;20273;-71
2021/11/05 07:19:18;;;;;;;5.43;2.40;;;9.50;99.90;;;;;;5050351;28;20210;-73
2021/11/05 07:21:45;;;;;;;4.23;2.80;;;9.50;99.90;;;;;;5054569;28;20657;-73
2021/11/05 07:24:12;;;;;;;5.63;2.63;;;9.50;99.90;;;;;;5058058;28;20288;-73
2021/11/05 07:26:41;;;;;;;3.03;2.60;;;9.50;99.90;;;;;;5054963;28;20897;-72
2021/11/05 07:29:11;;;;;;;3.47;2.27;;;9.50;99.90;;;;;;5056221;28;20194;-73
2021/11/05 07:31:40;;;;;;;4.47;2.57;;;9.50;99.90;;;;;;5056709;28;20266;-75
2021/11/05 07:34:07;;;;;;;2.90;2.53;;;9.50;99.90;;;;;;5055034;28;20340;-75
2021/11/05 07:36:34;;;;;;;3.13;2.40;;;9.50;99.90;;;;;;5068033;28;20565;-72
2021/11/05 07:39:02;;;;;;;3.37;2.57;;;9.60;99.90;;;;;;5053066;28;20202;-72
2021/11/05 07:41:30;;;;;;;3.80;2.67;;;9.60;99.90;;;;;;5054003;28;20232;-72
2021/11/05 07:43:57;;;;;;;2.53;2.20;;;9.60;99.90;;;;;;5053268;28;20206;-73
2021/11/05 07:46:24;;;;;;;3.97;2.60;;;9.60;99.90;;;;;;5055583;28;20681;-73
2021/11/05 07:48:52;;;;;;;3.57;2.37;;;9.60;99.90;;;;;;5062017;28;20274;-73
2021/11/05 07:51:19;;;;;;;3.33;2.50;;;9.70;99.90;;;;;;5063223;28;20229;-72
2021/11/05 07:53:46;;;;;;;2.93;2.60;;;9.70;99.90;;;;;;5054300;28;20206;-73
2021/11/05 07:56:14;;;;;;;3.07;2.50;;;9.70;99.90;;;;;;5066435;28;20329;-68
2021/11/05 07:58:41;;;;;;;4.57;2.73;;;9.80;99.90;;;;;;5051481;28;20210;-72
2021/11/05 08:01:07;;;;;;;4.70;2.80;;;9.90;99.90;;;;;;5056713;28;20324;-72
2021/11/05 08:03:34;;;;;;;9.10;2.50;;;10.10;99.90;;;;;;5060976;28;20216;-71
2021/11/05 08:06:03;;;;;;;4.23;2.97;;;10.50;99.90;;;;;;5060664;28;20202;-71
2021/11/05 08:08:31;;;;;;;7.20;2.67;;;10.90;99.90;;;;;;5060140;28;20736;-71
2021/11/05 08:10:59;;;;;;;4.13;2.57;;;11.20;99.90;;;;;;5052571;28;20213;-71
2021/11/05 08:13:26;;;;;;;4.57;3.07;;;11.40;99.90;;;;;;5051857;28;20316;-73
2021/11/05 08:15:52;;;;;;;4.10;2.63;;;11.50;99.90;;;;;;5050894;28;20285;-72
2021/11/05 08:18:19;;;;;;;4.67;2.77;;;11.60;99.90;;;;;;5046944;28;20702;-73
2021/11/05 08:20:46;;;;;;;3.93;2.80;;;11.70;99.70;;;;;;5051087;28;20217;-73
2021/11/05 08:23:15;;;;;;;4.40;2.93;;;11.70;99.60;;;;;;5052629;28;20209;-73
2021/11/05 08:25:44;;;;;;;2.93;2.57;;;11.70;99.80;;;;;;5052862;28;20206;-73
2021/11/05 08:28:11;;;;;;;4.03;3.00;;;11.70;99.30;;;;;;5052420;28;20202;-73
2021/11/05 08:30:39;;;;;;;3.50;2.70;;;11.70;98.90;;;;;;5051909;28;20233;-74
2021/11/05 08:33:06;;;;;;;3.57;2.90;;;11.50;98.90;;;;;;5050960;28;20247;-73
2021/11/05 08:35:33;;;;;;;3.90;2.87;;;11.40;99.10;;;;;;5051630;28;20289;-75
2021/11/05 08:38:02;;;;;;;5.07;3.10;;;11.30;99.30;;;;;;5052647;28;20571;-73
2021/11/05 08:40:31;;;;;;;5.03;2.60;;;11.30;99.20;;;;;;5053306;28;20213;-72
2021/11/05 08:42:59;;;;;;;5.50;2.90;;;11.20;99.20;;;;;;5052097;28;20218;-72
2021/11/05 08:45:26;;;;;;;3.90;2.20;;;11.10;99.30;;;;;;5052179;28;20218;-72
2021/11/05 08:47:53;;;;;;;5.60;2.57;;;11.00;99.60;;;;;;5052506;28;20232;-71
2021/11/05 08:50:22;;;;;;;6.70;4.40;;;11.00;99.80;;;;;;5046635;28;20198;-71
2021/11/05 08:52:50;;;;;;;3.40;2.87;;;11.10;99.90;;;;;;5052282;28;20589;-71
2021/11/05 08:55:18;;;;;;;3.37;2.80;;;11.10;99.80;;;;;;5056808;28;20289;-71
2021/11/05 08:57:46;;;;;;;4.00;2.70;;;11.10;99.60;;;;;;5063716;28;20229;-71
2021/11/05 09:00:16;;;;;;;5.37;3.07;;;11.10;99.80;;;;;;5054338;28;20628;-70
2021/11/05 09:02:44;;;;;;;5.10;3.63;;;11.00;99.90;;;;;;5053682;28;20655;-73
2021/11/05 09:05:11;;;;;;;3.93;2.90;;;11.00;99.90;;;;;;5051910;28;20206;-73
2021/11/05 09:07:38;;;;;;;2.90;2.60;;;11.10;99.90;;;;;;5051484;28;20210;-71
2021/11/05 09:10:07;;;;;;;7.80;3.17;;;11.30;99.90;;;;;;5046364;28;20216;-72
2021/11/05 09:12:34;;;;;;;4.40;2.93;;;11.60;99.90;;;;;;5049056;28;20218;-71
2021/11/05 09:15:02;;;;;;;4.50;2.87;;;11.80;99.40;;;;;;5049235;28;20201;-71
2021/11/05 09:17:29;;;;;;;3.57;2.80;;;11.80;98.90;;;;;;5046894;28;20202;-72
2021/11/05 09:19:56;;;;;;;5.23;3.07;;;11.80;98.80;;;;;;5052278;28;20229;-71
2021/11/05 09:22:23;;;;;;;5.67;2.83;;;11.70;98.60;;;;;;5051106;28;20212;-71
2021/11/05 09:24:50;;;;;;;7.53;3.27;;;11.60;99.00;;;;;;5047858;28;20682;-74
2021/11/05 09:27:17;;;;;;;5.40;3.23;;;11.50;98.90;;;;;;5052551;28;20206;-73
2021/11/05 09:29:44;;;;;;;6.90;3.17;;;11.40;99.10;;;;;;5047839;28;20233;-72
2021/11/05 09:32:13;;;;;;;4.90;3.00;;;11.20;99.10;;;;;;5053581;28;20877;-73
2021/11/05 09:34:40;;;;;;;4.30;2.77;;;11.20;99.50;;;;;;5048813;28;20209;-72
2021/11/05 09:37:08;;;;;;;3.53;2.83;;;11.10;99.40;;;;;;5051843;28;20294;-71
2021/11/05 09:39:35;;;;;;;5.73;3.10;;;11.10;99.40;;;;;;5053271;28;20218;-73
2021/11/05 09:42:03;;;;;;;4.83;3.10;;;11.00;99.50;;;;;;5053114;28;20208;-72
2021/11/05 09:44:30;;;;;;;4.53;3.40;;;11.00;99.60;;;;;;5055258;28;20240;-73
2021/11/05 09:47:02;;;;;;;7.17;2.93;;;10.90;99.70;;;;;;5052131;28;20578;-73
2021/11/05 09:49:31;;;;;;;3.57;2.70;;;10.90;99.90;;;;;;5051777;28;20202;-71
2021/11/05 09:52:00;;;;;;;4.53;2.87;;;10.80;99.90;;;;;;5052460;28;20302;-72
2021/11/05 09:54:30;;;;;;;5.60;3.00;;;10.90;99.90;;;;;;5050808;28;20218;-72
2021/11/05 09:56:58;;;;;;;4.93;2.87;;;10.80;99.90;;;;;;5051300;28;20293;-72
2021/11/05 09:59:25;;;;;;;4.00;2.90;;;10.70;99.90;;;;;;5051150;28;20263;-72
2021/11/05 10:01:52;;;;;;;3.77;3.07;;;10.70;99.90;;;;;;5059882;28;20206;-73
2021/11/05 10:04:19;;;;;;;4.57;2.80;;;10.70;99.90;;;;;;5056272;28;20241;-73
2021/11/05 10:07:00;;;;;;;4.53;3.07;;;10.60;99.90;;;;;;5054774;28;20740;-72
2021/11/05 10:09:33;;;;;;;7.30;2.93;;;10.60;99.90;;;;;;5056174;28;20550;-73
2021/11/05 10:12:06;;;;;;;4.23;3.40;;;10.60;99.90;;;;;;5055394;28;20194;-72
2021/11/05 10:14:33;;;;;;;4.10;3.30;;;10.50;99.90;;;;;;5056474;28;20202;-72
2021/11/05 10:17:02;;;;;;;7.23;3.83;;;10.50;99.90;;;;;;5056588;28;20245;-73
2021/11/05 10:19:51;;;;;;;5.23;3.77;;;10.50;99.90;;;;;;5055604;28;20233;-72
2021/11/05 10:22:46;;;;;;;4.03;2.83;;;10.50;99.90;;;;;;5042541;28;20202;-72
2021/11/05 10:25:30;;;;;;;5.93;3.63;;;10.50;99.90;;;;;;5054049;28;20237;-73
2021/11/05 10:28:06;;;;;;;6.07;4.63;;;10.50;99.90;;;;;;5061554;28;20202;-72
2021/11/05 10:30:35;;;;;;;7.03;3.83;;;10.40;99.90;;;;;;5052180;28;20233;-71
2021/11/05 10:33:04;;;;;;;5.50;3.40;;;10.40;99.90;;;;;;5053269;28;20596;-72
2021/11/05 10:35:31;;;;;;;8.57;3.73;;;10.40;99.90;;;;;;5054191;28;20623;-73
2021/11/05 10:38:04;;;;;;;3.47;3.07;;;10.40;99.90;;;;;;5053806;28;20468;-72
2021/11/05 10:40:33;;;;;;;4.83;3.70;;;10.40;99.90;;;;;;5053479;28;20214;-73
2021/11/05 10:43:00;;;;;;;3.67;3.20;;;10.40;99.90;;;;;;5054042;28;20201;-73
2021/11/05 10:45:28;;;;;;;3.83;3.27;;;10.40;99.90;;;;;;5053974;28;20301;-71
2021/11/05 10:48:06;;;;;;;5.40;3.00;;;10.50;99.90;;;;;;5054119;28;20213;-73
2021/11/05 10:50:37;;;;;;;4.83;3.50;;;10.50;99.90;;;;;;5054386;28;20285;-73
2021/11/05 10:53:08;;;;;;;7.43;3.37;;;10.60;99.90;;;;;;5054949;28;20220;-72
2021/11/05 10:55:44;;;;;;;5.03;3.70;;;10.60;99.90;;;;;;5055581;28;20213;-72
2021/11/05 10:58:20;;;;;;;5.87;3.07;;;10.70;99.90;;;;;;5057156;28;20693;-73
2021/11/05 11:00:49;;;;;;;4.87;2.90;;;10.70;99.90;;;;;;5054600;28;20576;-72
2021/11/05 11:03:17;;;;;;;6.03;2.90;;;10.70;99.90;;;;;;5053905;28;20452;-72
2021/11/05 11:05:45;;;;;;;3.17;2.67;;;10.70;99.90;;;;;;5055297;28;20202;-74
2021/11/05 11:08:22;;;;;;;3.03;2.70;;;10.70;99.90;;;;;;5056241;28;20644;-73
2021/11/05 11:10:51;;;;;;;3.10;2.50;;;10.70;99.90;;;;;;5055537;28;20261;-73
2021/11/05 11:13:29;;;;;;;3.20;2.40;;;10.50;99.90;;;;;;5055207;28;20320;-70
2021/11/05 11:15:57;;;;;;;3.50;2.40;;;10.50;99.90;;;;;;5054952;28;20225;-73
2021/11/05 11:18:24;;;;;;;2.37;2.10;;;10.50;99.90;;;;;;5055208;28;20213;-73
2021/11/05 11:20:51;;;;;;;2.97;2.67;;;10.50;99.90;;;;;;5053214;28;20251;-71
2021/11/05 11:23:20;;;;;;;4.60;2.07;;;10.60;99.90;;;;;;5053657;28;20662;-73
2021/11/05 11:25:47;;;;;;;3.80;1.73;;;10.60;99.90;;;;;;5053132;28;20214;-72
2021/11/05 11:28:14;;;;;;;2.77;2.07;;;10.60;99.90;;;;;;5051260;28;20210;-72
2021/11/05 11:30:41;;;;;;;2.07;1.83;;;10.60;99.90;;;;;;5052537;28;20241;-73
2021/11/05 11:33:09;;;;;;;3.07;1.83;;;10.50;99.90;;;;;;5053706;28;20225;-72
2021/11/05 11:35:37;;;;;;;1.83;1.70;;;10.50;99.90;;;;;;5056070;28;20233;-73
2021/11/05 11:38:04;;;;;;;2.57;1.80;;;10.50;99.90;;;;;;5053606;28;20220;-73
2021/11/05 11:40:33;;;;;;;2.27;1.90;;;10.50;99.90;;;;;;5049908;28;20209;-72
2021/11/05 11:43:00;;;;;;;2.57;1.20;;;10.50;99.90;;;;;;5048637;28;20236;-73
2021/11/05 11:45:27;;;;;;;1.23;1.13;;;10.50;99.90;;;;;;5050440;28;20651;-72
2021/11/05 11:47:56;;;;;;;1.17;1.03;;;10.50;99.90;;;;;;5051526;28;20738;-73
2021/11/05 11:50:26;;;;;;;3.00;1.40;;;10.60;99.90;;;;;;5058498;28;20283;-72
2021/11/05 11:53:05;;;;;;;0.90;0.90;;;10.50;99.90;;;;;;5054919;28;20321;-73
2021/11/05 11:55:36;;;;;;;2.00;1.27;;;10.50;99.90;;;;;;5052426;28;20689;-72
2021/11/05 11:58:11;;;;;;;2.30;1.23;;;10.50;99.90;;;;;;5052796;28;20261;-73
2021/11/05 12:00:39;;;;;;;3.53;1.50;;;10.50;99.90;;;;;;5052609;28;20248;-72
2021/11/05 12:03:08;;;;;;;1.10;1.00;;;10.50;99.90;;;;;;5051050;28;20320;-73
2021/11/05 12:05:38;;;;;;;1.83;1.27;;;10.50;99.90;;;;;;5051930;28;20224;-74
2021/11/05 12:08:23;;;;;;;6.73;1.27;;;10.40;99.90;;;;;;5053191;28;20646;-73
2021/11/05 12:10:54;;;;;;;2.23;1.07;;;10.40;99.90;;;;;;5049145;28;20828;-73
2021/11/05 12:13:44;;;;;;;2.90;1.77;;;10.50;99.90;;;;;;5052446;28;20577;-73
2021/11/05 12:16:21;;;;;;;0.90;0.90;;;10.50;99.90;;;;;;5050640;28;20292;-71
2021/11/05 12:19:11;;;;;;;1.30;1.13;;;10.50;99.90;;;;;;5052512;28;20208;-72
2021/11/05 12:21:42;;;;;;;1.73;0.90;;;10.40;99.90;;;;;;5047744;28;20207;-72
2021/11/05 12:24:29;;;;;;;1.47;0.90;;;10.40;99.90;;;;;;5051314;28;20655;-72
2021/11/05 12:27:01;;;;;;;0.80;0.80;;;10.40;99.90;;;;;;5052246;28;20613;-72
2021/11/05 12:29:54;;;;;;;2.10;0.80;;;10.40;99.90;;;;;;5053241;28;20736;-71
2021/11/05 12:32:33;;;;;;;1.43;1.10;;;10.30;99.90;;;;;;5052982;28;20213;-73
2021/11/05 12:35:28;;;;;;;1.50;1.10;;;10.30;99.90;;;;;;5055705;28;20209;-71
2021/11/05 12:38:10;;;;;;;1.30;1.00;;;10.20;99.90;;;;;;5051081;28;20275;-72
2021/11/05 12:40:45;;;;;;;4.00;1.20;;;10.20;99.90;;;;;;5053027;28;20240;-71
2021/11/05 12:43:35;;;;;;;1.00;0.90;;;10.20;99.90;;;;;;5052943;28;20247;-71
2021/11/05 12:46:07;;;;;;;1.10;1.00;;;10.20;99.90;;;;;;5052659;28;20209;-72
2021/11/05 12:48:57;;;;;;;1.73;1.30;;;10.20;99.90;;;;;;5051000;28;20198;-72
2021/11/05 12:51:26;;;;;;;1.80;1.20;;;10.20;99.90;;;;;;5050144;28;20588;-72
2021/11/05 12:54:01;;;;;;;1.00;0.93;;;10.20;99.90;;;;;;5052158;28;20459;-71
2021/11/05 12:56:29;;;;;;;1.20;1.10;;;10.20;99.90;;;;;;5048999;28;20252;-70
2021/11/05 12:58:58;;;;;;;2.90;1.23;;;10.20;99.90;;;;;;5040269;28;20217;-71
2021/11/05 13:01:26;;;;;;;2.37;1.30;;;10.20;99.90;;;;;;5040194;28;20202;-71